createdAt,value
2023-04-28T00:00:55.741Z,14.36
2023-04-28T00:03:22.338Z,14.33
2023-04-28T00:05:49.595Z,14.54
2023-04-28T00:08:16.220Z,14.66
2023-04-28T00:10:42.761Z,14.36
2023-04-28T00:13:09.237Z,14.48
2023-04-28T00:15:35.858Z,14.53
2023-04-28T00:18:02.370Z,14.03
2023-04-28T00:20:28.888Z,13.91
2023-04-28T00:22:55.301Z,14.34
2023-04-28T00:25:21.791Z,14.01
2023-04-28T00:27:48.255Z,13.55
2023-04-28T00:30:15.236Z,14.11
2023-04-28T00:32:41.878Z,14.33
2023-04-28T00:35:08.793Z,14.13
2023-04-28T00:37:38.995Z,14.13
2023-04-28T00:40:06.168Z,14.03
2023-04-28T00:42:32.665Z,14.01
2023-04-28T00:45:04.391Z,14.05
2023-04-28T00:47:31.394Z,13.72
2023-04-28T00:49:58.263Z,13.83
2023-04-28T00:52:24.920Z,14.20
2023-04-28T00:54:51.366Z,14.43
2023-04-28T00:57:17.904Z,14.13
2023-04-28T00:59:44.361Z,14.12
2023-04-28T01:02:17.255Z,13.98
2023-04-28T01:04:46.096Z,13.85
2023-04-28T01:07:13.014Z,13.51
2023-04-28T01:09:39.939Z,13.52
2023-04-28T01:12:06.877Z,13.90
2023-04-28T01:14:34.017Z,14.11
2023-04-28T01:17:01.898Z,14.00
2023-04-28T01:19:29.711Z,14.37
2023-04-28T01:21:56.748Z,13.47
2023-04-28T01:24:23.450Z,13.87
2023-04-28T01:26:50.552Z,13.85
2023-04-28T01:29:17.151Z,13.76
2023-04-28T01:31:43.665Z,13.89
2023-04-28T01:34:10.314Z,13.83
2023-04-28T01:36:37.795Z,14.10
2023-04-28T01:39:05.002Z,13.96
2023-04-28T01:41:34.356Z,13.19
2023-04-28T01:44:01.004Z,13.50
2023-04-28T01:46:27.680Z,13.78
2023-04-28T01:48:54.340Z,13.86
2023-04-28T01:51:20.997Z,14.01
2023-04-28T01:53:47.572Z,13.09
2023-04-28T01:56:14.146Z,12.88
2023-04-28T01:58:41.589Z,13.06
2023-04-28T02:01:08.180Z,12.88
2023-04-28T02:03:34.962Z,12.29
2023-04-28T02:06:01.760Z,12.85
2023-04-28T02:08:28.569Z,12.01
2023-04-28T02:10:55.187Z,12.01
2023-04-28T02:13:21.681Z,11.85
2023-04-28T02:15:48.263Z,12.50
2023-04-28T02:18:15.052Z,12.07
2023-04-28T02:20:41.967Z,12.58
2023-04-28T02:23:08.795Z,12.81
2023-04-28T02:25:36.035Z,12.16
2023-04-28T02:28:03.304Z,12.72
2023-04-28T02:30:29.838Z,12.72
2023-04-28T02:32:56.607Z,12.65
2023-04-28T02:35:23.431Z,12.50
2023-04-28T02:37:50.375Z,12.84
2023-04-28T02:40:17.809Z,12.57
2023-04-28T02:42:44.470Z,12.37
2023-04-28T02:45:11.965Z,12.72
2023-04-28T02:47:38.644Z,12.28
2023-04-28T02:50:06.654Z,12.99
2023-04-28T02:52:33.359Z,12.68
2023-04-28T02:55:00.059Z,12.91
2023-04-28T02:57:26.763Z,12.97
2023-04-28T02:59:53.525Z,12.79
2023-04-28T03:02:22.592Z,12.74
2023-04-28T03:04:49.523Z,12.42
2023-04-28T03:07:16.057Z,12.33
2023-04-28T03:09:42.660Z,12.73
2023-04-28T03:12:09.196Z,12.51
2023-04-28T03:14:36.804Z,12.62
2023-04-28T03:17:03.686Z,12.32
2023-04-28T03:19:30.756Z,12.10
2023-04-28T03:21:57.333Z,12.50
2023-04-28T03:24:26.031Z,12.49
2023-04-28T03:26:52.740Z,12.76
2023-04-28T03:29:19.621Z,12.76
2023-04-28T03:31:46.214Z,12.81
2023-04-28T03:34:13.379Z,12.80
2023-04-28T03:36:39.942Z,12.52
2023-04-28T03:39:06.525Z,11.46
2023-04-28T03:41:33.149Z,11.57
2023-04-28T03:43:59.761Z,11.04
2023-04-28T03:46:26.477Z,12.53
2023-04-28T03:48:53.635Z,12.61
2023-04-28T03:51:20.901Z,12.69
2023-04-28T03:53:47.600Z,12.67
2023-04-28T03:56:14.284Z,12.16
2023-04-28T03:58:41.200Z,11.97
2023-04-28T04:01:07.718Z,12.05
2023-04-28T04:03:34.456Z,11.81
2023-04-28T04:06:01.961Z,11.96
2023-04-28T04:08:28.604Z,12.67
2023-04-28T04:10:56.005Z,12.69
2023-04-28T04:13:22.884Z,12.36
2023-04-28T04:15:50.887Z,12.61
2023-04-28T04:18:18.887Z,12.37
2023-04-28T04:20:46.008Z,12.59
2023-04-28T04:23:12.608Z,12.52
2023-04-28T04:25:39.506Z,12.22
2023-04-28T04:28:06.171Z,12.88
2023-04-28T04:30:33.449Z,12.99
2023-04-28T04:33:00.056Z,13.06
2023-04-28T04:35:26.910Z,12.03
2023-04-28T04:37:53.615Z,12.63
2023-04-28T04:40:20.351Z,12.29
2023-04-28T04:42:46.878Z,12.16
2023-04-28T04:45:13.432Z,12.39
2023-04-28T04:47:40.754Z,12.67
2023-04-28T04:50:08.068Z,12.75
2023-04-28T04:52:34.732Z,12.74
2023-04-28T04:55:01.445Z,12.74
2023-04-28T04:57:28.042Z,12.67
2023-04-28T04:59:54.622Z,12.73
2023-04-28T05:02:21.202Z,12.98
2023-04-28T05:04:47.833Z,12.42
2023-04-28T05:07:14.490Z,12.59
2023-04-28T05:09:41.125Z,13.22
2023-04-28T05:12:08.117Z,12.95
2023-04-28T05:14:35.019Z,13.58
2023-04-28T05:17:01.767Z,13.23
2023-04-28T05:19:28.417Z,13.29
2023-04-28T05:21:55.154Z,13.18
2023-04-28T05:24:23.756Z,13.78
2023-04-28T05:26:51.678Z,13.51
2023-04-28T05:29:18.352Z,13.88
2023-04-28T05:31:44.911Z,13.15
2023-04-28T05:34:11.485Z,13.25
2023-04-28T05:36:38.377Z,13.54
2023-04-28T05:39:04.982Z,14.16
2023-04-28T05:41:31.690Z,13.59
2023-04-28T05:43:58.290Z,13.96
2023-04-28T05:46:30.611Z,13.81
2023-04-28T05:48:57.930Z,13.91
2023-04-28T05:51:24.541Z,13.72
2023-04-28T05:53:51.116Z,13.31
2023-04-28T05:56:18.214Z,13.25
2023-04-28T05:58:45.337Z,12.97
2023-04-28T06:01:11.971Z,12.62
2023-04-28T06:03:38.862Z,12.49
2023-04-28T06:06:09.771Z,12.17
2023-04-28T06:08:37.113Z,12.69
2023-04-28T06:11:03.956Z,13.86
2023-04-28T06:13:30.480Z,13.43
2023-04-28T06:15:57.161Z,13.36
2023-04-28T06:18:24.338Z,12.68
2023-04-28T06:20:51.516Z,12.16
2023-04-28T06:23:18.251Z,13.58
2023-04-28T06:25:44.942Z,12.91
2023-04-28T06:28:13.345Z,13.08
2023-04-28T06:30:39.918Z,13.47
2023-04-28T06:33:06.658Z,13.59
2023-04-28T06:35:38.997Z,13.47
2023-04-28T06:38:06.935Z,13.81
2023-04-28T06:40:33.478Z,13.74
2023-04-28T06:42:59.988Z,13.21
2023-04-28T06:45:26.623Z,11.96
2023-04-28T06:47:55.860Z,13.03
2023-04-28T06:50:23.954Z,13.31
2023-04-28T06:52:50.735Z,13.10
2023-04-28T06:55:17.602Z,13.68
2023-04-28T07:00:11.575Z,13.66
2023-04-28T07:02:38.421Z,13.80
2023-04-28T07:05:05.484Z,13.78
2023-04-28T07:07:32.610Z,13.81
2023-04-28T07:10:00.545Z,13.78
2023-04-28T07:12:27.400Z,13.64
2023-04-28T07:14:54.023Z,14.06
2023-04-28T07:17:20.534Z,14.68
2023-04-28T07:19:47.342Z,14.60
2023-04-28T07:22:13.908Z,14.42
2023-04-28T07:24:40.588Z,14.37
2023-04-28T07:27:07.189Z,14.45
2023-04-28T07:29:35.146Z,14.92
2023-04-28T07:32:04.158Z,14.19
2023-04-28T07:34:31.851Z,14.62
2023-04-28T07:36:59.588Z,15.01
2023-04-28T07:39:26.255Z,14.93
2023-04-28T07:41:52.958Z,15.49
2023-04-28T07:44:20.714Z,15.78
2023-04-28T07:46:47.418Z,15.89
2023-04-28T07:49:14.348Z,16.49
2023-04-28T07:51:40.902Z,16.27
2023-04-28T07:54:07.514Z,16.56
2023-04-28T07:56:35.163Z,16.83
2023-04-28T07:59:01.821Z,17.31
2023-04-28T08:01:28.408Z,17.50
2023-04-28T08:03:55.111Z,17.21
2023-04-28T08:06:22.212Z,17.04
2023-04-28T08:08:49.144Z,17.42
2023-04-28T08:11:15.853Z,17.54
2023-04-28T08:13:42.341Z,18.08
2023-04-28T08:16:09.033Z,18.23
2023-04-28T08:18:35.686Z,18.62
2023-04-28T08:21:02.331Z,18.84
2023-04-28T08:23:30.748Z,19.03
2023-04-28T08:25:57.915Z,18.90
2023-04-28T08:28:24.688Z,19.26
2023-04-28T08:30:51.414Z,19.71
2023-04-28T08:33:18.181Z,20.75
2023-04-28T08:35:45.070Z,21.04
2023-04-28T08:38:14.134Z,21.47
2023-04-28T08:40:42.836Z,21.32
2023-04-28T08:43:10.705Z,20.76
2023-04-28T08:45:43.007Z,20.88
2023-04-28T08:48:20.660Z,20.53
2023-04-28T08:50:52.934Z,19.94
2023-04-28T08:53:26.129Z,19.84
2023-04-28T08:55:56.435Z,19.39
2023-04-28T08:58:27.319Z,18.65
2023-04-28T09:00:54.570Z,18.86
2023-04-28T09:03:21.497Z,19.64
2023-04-28T09:05:49.093Z,19.04
2023-04-28T09:08:15.787Z,20.76
2023-04-28T09:10:42.506Z,22.80
2023-04-28T09:13:09.246Z,21.56
2023-04-28T09:15:38.201Z,20.85
2023-04-28T09:18:06.405Z,21.49
2023-04-28T09:20:34.703Z,21.87
2023-04-28T09:23:21.633Z,20.91
2023-04-28T09:26:07.520Z,21.79
2023-04-28T09:28:36.314Z,19.32
2023-04-28T09:31:04.011Z,19.75
2023-04-28T09:33:30.953Z,20.07
2023-04-28T09:35:57.609Z,19.55
2023-04-28T09:38:25.092Z,20.31
2023-04-28T09:40:53.818Z,20.19
2023-04-28T09:43:24.604Z,19.40
2023-04-28T09:45:51.846Z,20.79
2023-04-28T09:48:26.919Z,20.37
2023-04-28T09:50:55.379Z,20.63
2023-04-28T09:53:25.905Z,23.09
2023-04-28T09:55:54.448Z,23.45
2023-04-28T09:58:21.945Z,23.09
2023-04-28T10:00:57.257Z,27.76
2023-04-28T10:03:31.750Z,28.27
2023-04-28T10:05:59.201Z,27.90
2023-04-28T10:08:27.349Z,28.20
2023-04-28T10:10:54.849Z,27.00
2023-04-28T10:13:22.862Z,25.25
2023-04-28T10:15:50.392Z,26.41
2023-04-28T10:18:18.519Z,23.20
2023-04-28T10:20:48.483Z,24.01
2023-04-28T10:23:48.018Z,22.80
2023-04-28T10:26:18.366Z,22.13
2023-04-28T10:28:49.824Z,21.43
2023-04-28T10:31:21.449Z,21.04
2023-04-28T10:33:48.945Z,21.30
2023-04-28T10:36:52.893Z,22.13
2023-04-28T10:39:20.002Z,20.94
2023-04-28T10:41:47.879Z,20.78
2023-04-28T10:44:35.731Z,19.91
2023-04-28T10:47:03.946Z,17.74
2023-04-28T10:49:58.833Z,20.32
2023-04-28T10:52:35.334Z,20.86
2023-04-28T10:55:33.195Z,21.18
2023-04-28T10:58:15.178Z,25.16
2023-04-28T11:00:43.060Z,27.40
2023-04-28T11:03:10.085Z,26.43
2023-04-28T11:05:37.109Z,24.48
2023-04-28T11:08:18.973Z,23.66
2023-04-28T11:11:10.718Z,23.32
2023-04-28T11:13:37.583Z,22.98
2023-04-28T11:16:04.690Z,22.37
2023-04-28T11:18:55.162Z,20.31
2023-04-28T11:21:23.717Z,20.39
2023-04-28T11:23:51.639Z,21.34
2023-04-28T11:26:19.418Z,22.11
2023-04-28T11:28:51.556Z,22.57
2023-04-28T11:31:21.234Z,23.03
2023-04-28T11:33:57.369Z,22.89
2023-04-28T11:36:33.595Z,22.10
2023-04-28T11:39:02.617Z,20.69
2023-04-28T11:41:29.521Z,20.16
2023-04-28T11:43:56.384Z,18.84
2023-04-28T11:46:25.110Z,18.76
2023-04-28T11:49:02.991Z,18.69
2023-04-28T11:51:34.092Z,18.46
2023-04-28T11:54:01.980Z,19.03
2023-04-28T11:56:29.228Z,19.01
2023-04-28T11:59:09.577Z,19.71
2023-04-28T12:02:05.208Z,19.91
2023-04-28T12:04:40.327Z,18.68
2023-04-28T12:07:10.431Z,18.92
2023-04-28T12:10:01.278Z,18.99
2023-04-28T12:12:40.024Z,19.18
2023-04-28T12:15:08.450Z,18.94
2023-04-28T12:17:37.841Z,18.36
2023-04-28T12:20:06.966Z,17.81
2023-04-28T12:22:49.602Z,17.59
2023-04-28T12:25:19.323Z,17.75
2023-04-28T12:28:06.008Z,18.22
2023-04-28T12:30:42.456Z,17.70
2023-04-28T12:33:29.715Z,18.24
2023-04-28T12:35:57.537Z,18.53
2023-04-28T12:38:24.738Z,18.43
2023-04-28T12:40:51.719Z,18.13
2023-04-28T12:43:18.235Z,17.63
2023-04-28T12:45:44.965Z,17.36
2023-04-28T12:48:11.579Z,17.54
2023-04-28T12:50:38.138Z,17.60
2023-04-28T12:53:05.179Z,17.48
2023-04-28T12:55:31.963Z,17.16
2023-04-28T12:57:59.475Z,17.72
2023-04-28T13:00:26.427Z,17.26
2023-04-28T13:02:53.422Z,17.61
2023-04-28T13:05:20.081Z,17.66
2023-04-28T13:07:47.483Z,16.74
2023-04-28T13:10:14.030Z,17.60
2023-04-28T13:12:41.350Z,17.41
2023-04-28T13:15:08.602Z,17.66
2023-04-28T13:17:35.663Z,18.42
2023-04-28T13:20:05.232Z,18.57
2023-04-28T13:22:32.392Z,19.03
2023-04-28T13:24:59.248Z,20.07
2023-04-28T13:27:25.933Z,19.36
2023-04-28T13:29:52.838Z,19.64
2023-04-28T13:32:19.730Z,19.91
2023-04-28T13:34:47.048Z,19.87
2023-04-28T13:37:13.983Z,19.16
2023-04-28T13:39:40.895Z,17.95
2023-04-28T13:42:07.650Z,18.66
2023-04-28T13:44:34.918Z,19.02
2023-04-28T13:47:01.557Z,20.39
2023-04-28T13:49:28.822Z,21.21
2023-04-28T13:51:56.297Z,20.10
2023-04-28T13:54:23.032Z,21.83
2023-04-28T13:56:49.631Z,22.16
2023-04-28T13:59:16.190Z,21.39
2023-04-28T14:01:42.963Z,20.14
2023-04-28T14:04:09.724Z,21.90
2023-04-28T14:06:37.263Z,23.20
2023-04-28T14:09:04.072Z,22.54
2023-04-28T14:11:31.088Z,22.51
2023-04-28T14:13:57.647Z,23.04
2023-04-28T14:16:24.581Z,23.11
2023-04-28T14:18:51.806Z,22.52
2023-04-28T14:21:18.358Z,22.05
2023-04-28T14:23:44.984Z,20.78
2023-04-28T14:26:11.736Z,22.44
2023-04-28T14:28:38.592Z,22.04
2023-04-28T14:31:07.319Z,22.18
2023-04-28T14:33:34.293Z,22.41
2023-04-28T14:36:02.404Z,22.23
2023-04-28T14:38:30.591Z,20.74
2023-04-28T14:40:57.676Z,21.02
2023-04-28T14:43:24.756Z,21.44
2023-04-28T14:45:51.953Z,21.75
2023-04-28T14:48:18.793Z,20.51
2023-04-28T14:50:46.193Z,21.05
2023-04-28T14:53:12.879Z,20.54
2023-04-28T14:55:39.527Z,21.35
2023-04-28T14:58:06.091Z,20.71
2023-04-28T15:00:32.624Z,20.79
2023-04-28T15:02:59.417Z,20.98
2023-04-28T15:05:26.286Z,21.08
2023-04-28T15:07:52.974Z,21.10
2023-04-28T15:10:19.637Z,20.43
2023-04-28T15:12:48.350Z,21.48
2023-04-28T15:15:14.920Z,21.39
2023-04-28T15:17:41.476Z,21.93
2023-04-28T15:20:08.377Z,22.73
2023-04-28T15:22:36.450Z,22.60
2023-04-28T15:25:03.368Z,23.13
2023-04-28T15:27:29.891Z,21.90
2023-04-28T15:29:56.466Z,22.46
2023-04-28T15:32:23.487Z,22.17
2023-04-28T15:34:50.740Z,21.83
2023-04-28T15:37:43.404Z,20.99
2023-04-28T15:40:12.227Z,21.58
2023-04-28T15:42:49.483Z,22.06
2023-04-28T15:45:16.834Z,21.58
2023-04-28T15:47:43.989Z,20.88
2023-04-28T15:50:11.486Z,21.02
2023-04-28T15:52:40.642Z,22.40
2023-04-28T15:55:08.491Z,21.89
2023-04-28T15:57:36.615Z,21.61
2023-04-28T16:00:03.480Z,21.62
2023-04-28T16:02:32.445Z,19.84
2023-04-28T16:05:00.092Z,20.36
2023-04-28T16:07:27.230Z,19.62
2023-04-28T16:09:54.307Z,19.25
2023-04-28T16:12:21.233Z,19.89
2023-04-28T16:14:51.015Z,19.30
2023-04-28T16:17:17.869Z,20.02
2023-04-28T16:19:44.784Z,19.80
2023-04-28T16:22:11.546Z,19.62
2023-04-28T16:24:42.572Z,19.71
2023-04-28T16:27:12.908Z,19.88
2023-04-28T16:29:39.564Z,19.22
2023-04-28T16:32:06.738Z,19.20
2023-04-28T16:34:33.402Z,18.96
2023-04-28T16:37:00.418Z,19.60
2023-04-28T16:39:27.161Z,18.48
2023-04-28T16:41:53.659Z,18.33
2023-04-28T16:44:20.488Z,17.81
2023-04-28T16:46:47.815Z,17.48
2023-04-28T16:49:14.386Z,17.88
2023-04-28T16:51:41.076Z,18.07
2023-04-28T16:54:07.728Z,17.95
2023-04-28T16:56:38.880Z,17.78
2023-04-28T16:59:05.496Z,17.12
2023-04-28T17:01:32.018Z,17.11
2023-04-28T17:03:58.919Z,17.36
2023-04-28T17:06:26.142Z,18.37
2023-04-28T17:08:52.675Z,18.17
2023-04-28T17:11:19.319Z,17.93
2023-04-28T17:13:47.067Z,18.19
2023-04-28T17:16:13.761Z,17.24
2023-04-28T17:18:41.331Z,17.73
2023-04-28T17:21:07.988Z,17.31
2023-04-28T17:23:34.819Z,17.80
2023-04-28T17:26:03.318Z,17.97
2023-04-28T17:28:29.957Z,18.23
2023-04-28T17:30:56.533Z,18.30
2023-04-28T17:33:23.343Z,17.84
2023-04-28T17:35:50.098Z,17.80
2023-04-28T17:38:17.339Z,17.74
2023-04-28T17:40:48.560Z,17.57
2023-04-28T17:43:20.261Z,17.70
2023-04-28T17:45:46.874Z,17.92
2023-04-28T17:48:13.567Z,18.32
2023-04-28T17:50:40.193Z,17.78
2023-04-28T17:53:06.773Z,17.19
2023-04-28T17:55:33.473Z,17.40
2023-04-28T17:57:59.990Z,17.41
2023-04-28T18:00:26.711Z,18.10
2023-04-28T18:02:55.092Z,17.77
2023-04-28T18:05:24.242Z,17.86
2023-04-28T18:07:50.946Z,16.94
2023-04-28T18:10:18.086Z,16.73
2023-04-28T18:12:45.069Z,16.25
2023-04-28T18:15:12.250Z,16.02
2023-04-28T18:17:38.875Z,15.81
2023-04-28T18:20:07.023Z,16.28
2023-04-28T18:22:33.751Z,15.54
2023-04-28T18:25:00.663Z,15.93
2023-04-28T18:27:27.203Z,15.69
2023-04-28T18:29:54.192Z,15.24
2023-04-28T18:32:20.775Z,15.66
2023-04-28T18:34:47.606Z,15.95
2023-04-28T18:37:14.146Z,15.83
2023-04-28T18:39:41.206Z,15.78
2023-04-28T18:42:07.769Z,15.64
2023-04-28T18:44:34.731Z,15.16
2023-04-28T18:47:01.329Z,15.58
2023-04-28T18:49:27.847Z,16.15
2023-04-28T18:51:54.482Z,15.74
2023-04-28T18:54:21.410Z,15.82
2023-04-28T18:56:48.085Z,16.18
2023-04-28T18:59:14.759Z,15.97
2023-04-28T19:01:41.366Z,16.39
2023-04-28T19:04:08.345Z,16.10
2023-04-28T19:06:36.183Z,15.65
2023-04-28T19:09:02.998Z,15.63
2023-04-28T19:11:30.451Z,14.77
2023-04-28T19:13:57.972Z,15.63
2023-04-28T19:16:24.899Z,15.99
2023-04-28T19:18:52.085Z,15.58
2023-04-28T19:21:19.009Z,15.66
2023-04-28T19:23:45.587Z,16.23
2023-04-28T19:26:13.335Z,15.92
2023-04-28T19:28:39.950Z,15.74
2023-04-28T19:31:08.184Z,16.36
2023-04-28T19:33:34.848Z,16.32
2023-04-28T19:36:01.625Z,16.12
2023-04-28T19:38:28.609Z,16.53
2023-04-28T19:41:01.067Z,16.94
2023-04-28T19:43:28.122Z,16.37
2023-04-28T19:45:54.683Z,16.59
2023-04-28T19:48:21.552Z,16.43
2023-04-28T19:50:48.169Z,16.00
2023-04-28T19:53:14.928Z,15.87
2023-04-28T19:55:41.536Z,16.16
2023-04-28T19:58:10.059Z,15.88
2023-04-28T20:00:36.888Z,16.08
2023-04-28T20:03:04.028Z,15.65
2023-04-28T20:05:31.311Z,15.96
2023-04-28T20:07:58.020Z,15.43
2023-04-28T20:10:24.941Z,16.15
2023-04-28T20:12:51.653Z,16.36
2023-04-28T20:15:18.665Z,16.16
2023-04-28T20:17:45.907Z,16.46
2023-04-28T20:20:13.291Z,15.95
2023-04-28T20:22:41.014Z,15.79
2023-04-28T20:25:10.277Z,15.42
2023-04-28T20:27:36.964Z,15.40
2023-04-28T20:30:04.143Z,16.05
2023-04-28T20:32:31.083Z,15.59
2023-04-28T20:34:57.863Z,14.90
2023-04-28T20:37:26.309Z,15.03
2023-04-28T20:39:53.201Z,15.41
2023-04-28T20:42:20.004Z,15.56
2023-04-28T20:44:46.615Z,15.53
2023-04-28T20:47:13.551Z,15.56
2023-04-28T20:49:40.461Z,15.34
2023-04-28T20:52:07.025Z,15.51
2023-04-28T20:54:35.752Z,15.04
2023-04-28T20:57:04.429Z,14.72
2023-04-28T20:59:32.599Z,15.02
2023-04-28T21:02:00.153Z,14.54
2023-04-28T21:04:28.401Z,15.08
2023-04-28T21:06:55.618Z,15.08
2023-04-28T21:09:25.033Z,15.44
2023-04-28T21:11:52.571Z,15.08
2023-04-28T21:14:19.392Z,15.10
2023-04-28T21:16:46.216Z,15.27
2023-04-28T21:19:12.866Z,15.29
2023-04-28T21:21:39.627Z,15.03
2023-04-28T21:24:06.252Z,15.47
2023-04-28T21:26:33.126Z,15.05
2023-04-28T21:28:59.894Z,15.15
2023-04-28T21:31:26.569Z,15.42
2023-04-28T21:33:53.403Z,15.14
2023-04-28T21:36:20.043Z,15.01
2023-04-28T21:38:46.652Z,15.29
2023-04-28T21:41:13.354Z,14.80
2023-04-28T21:43:40.533Z,14.90
2023-04-28T21:46:07.150Z,14.82
2023-04-28T21:48:33.768Z,14.95
2023-04-28T21:51:01.337Z,14.61
2023-04-28T21:53:28.742Z,14.45
2023-04-28T21:55:55.536Z,14.86
2023-04-28T21:58:22.316Z,14.33
2023-04-28T22:00:49.099Z,14.47
2023-04-28T22:03:16.737Z,15.22
2023-04-28T22:05:46.785Z,15.42
2023-04-28T22:08:13.852Z,15.15
2023-04-28T22:10:40.614Z,14.97
2023-04-28T22:13:09.045Z,14.25
2023-04-28T22:15:35.722Z,14.76
2023-04-28T22:18:04.246Z,14.66
2023-04-28T22:20:32.072Z,14.70
2023-04-28T22:22:58.670Z,14.64
2023-04-28T22:25:25.272Z,14.75
2023-04-28T22:27:51.874Z,14.96
2023-04-28T22:30:18.512Z,14.69
2023-04-28T22:32:47.033Z,14.88
2023-04-28T22:35:13.987Z,14.58
2023-04-28T22:37:40.541Z,14.49
2023-04-28T22:40:08.431Z,14.54
2023-04-28T22:42:39.692Z,14.69
2023-04-28T22:45:06.872Z,14.83
2023-04-28T22:47:34.636Z,14.71
2023-04-28T22:50:03.989Z,14.52
2023-04-28T22:52:30.517Z,14.54
2023-04-28T22:54:57.483Z,14.85
2023-04-28T22:57:24.192Z,15.15
2023-04-28T22:59:51.125Z,14.81
2023-04-28T23:02:18.001Z,14.88
2023-04-28T23:04:44.824Z,14.99
2023-04-28T23:07:11.443Z,14.94
2023-04-28T23:09:38.121Z,14.79
2023-04-28T23:12:05.148Z,14.06
2023-04-28T23:14:32.361Z,14.62
2023-04-28T23:17:00.020Z,14.76
2023-04-28T23:19:26.553Z,14.71
2023-04-28T23:21:54.466Z,14.21
2023-04-28T23:24:21.087Z,14.52
2023-04-28T23:26:47.824Z,14.24
2023-04-28T23:29:14.589Z,14.36
2023-04-28T23:31:41.283Z,14.10
2023-04-28T23:34:08.379Z,13.86
2023-04-28T23:36:35.571Z,13.63
2023-04-28T23:39:02.471Z,13.68
2023-04-28T23:41:29.239Z,13.72
2023-04-28T23:43:56.676Z,14.32
2023-04-28T23:46:23.485Z,14.32
2023-04-28T23:48:50.722Z,14.43
2023-04-28T23:51:17.265Z,14.15
2023-04-28T23:53:44.155Z,14.74
2023-04-28T23:56:10.688Z,14.31
2023-04-28T23:58:38.573Z,14.34
